Ainsworth, Nebraska
Current Conditions -  °F | °C
As of 10:55 AM on Tuesday 27 Jan 2015 (Local Time) from KANW Reporting Station
Clear Clear  
Wind Chill: 54°   Ceiling: Unl
Heat Index: 54°   Visibility: 10mi
Dew Point: 33°   Wind: 7mph
Humidity: 45%   Direction: 270°W
Pressure: 29.98"   Gusts: NA
Location:  42.55°N, 99.86°W
Report Text: KANW 271655Z AUTO 27006KT 10SM CLR 12/00 A2998 RMK AO2 T01200003
Loading
Personal Weather Stations






























Interactive Weather Map New forecast layout! Learn more

10-Day Weather Forecast

Advertisements
Track Severe Weather on mobile